罗盘
风向 的 Teuge International Airport 8/26
风: 2 kt, 1 beaufort


1 kt
改变
0 6.000 12.000 18.000 24.000 30.000
BKN 24.000 ft
OVC 29.000 ft
METAR EHEH 220525Z AUTO VRB02KT 9999 BKN240 OVC290 12/10 Q1017 BLU NOSIG

METAR Teuge International Airport

Teuge International Airport是Deventer,荷兰中的中型机场。 该机场有一条跑道: 8/26.

这份报告是针对2022年5月22日 07:25, 当地时间在Eindhoven Airport进行的。

机场观察

可变方向的风很小或没有风。

可见度为10 km 或者更多。

有碎云在24.000 ft的高度 和 乌云密布在29.000 ft的高度。 破损或更高的上限为24.000 ft。

温度和风寒是12 °C。 露点为10 °C,相对湿度为88%。 海平面上的气压为1017 hPa (QNH)。

白天

今天,太阳从05:30升起,在21:34降落。 这适用于Teuge International Airport,世界夏令时可能有所不同。 当地时间与世界标准时间之间的时差为+2 小时。 夏令时目前正在进行中。

公司介绍

在这个机场,你可以找到飞行学校。 本场上唯一已知的公司是Vliegles.nl。

体会

在这个机场有飞行课程。 你可以在没有任何经验的情况下预订飞行课程。 在Teuge International Airport预订最多的飞行课程类型是Cessna flying lesson。 这些课程的价格从€ 149开始。 在这里阅读更多关于Cessna flying lesson的信息。你也可以在这个网站上进行预订。

您会帮助我们保持Metar-Taf.com正常运行吗?
您的贡献有助于网站的进一步开发并支付费用。

没有更多广告

您是捐款5美元还是更多?然后,我们将永远不会再向您展示广告,这是我们永恒的感谢!
捐赠前先登录

跑道

Id 标题 侧风 逆风
8/26 084°-264° 1 kt

逆风成分最大的方向会被突出显示,并用于横风计算。 这并不一定意味着这个方向在使用。

乌云

24.000 ft BKN 碎云
29.000 ft OVC 乌云密布

温度 & 天气

温度 12 °C
露点 10 °C
相对湿度 88%
Kp-index 2  

公司介绍

新增公司

下载我们的应用程序

在您的手机和平板电脑上轻松访问所有航空天气。
有许多网站上没有的功能,如离线支持和个人机场列表。

Studio Eveline

Benalmádena
España

我们和第三方通过cookies跟踪您在我们网站上的上网行为。如果您继续,我们认为您同意我们的cookie政策。 了解更多